Bo Airport

Jump to: basic info | weather | comments

Related pages: nearby airports | nearby navaids | notams | map

Basic information (top)

Codes: KBS GFBO
Location: lon 7.944400, lat -11.761000, elev 328 ft / 100 m msl
Status: medium_airport
Scheduled airline service: yes
Links: Wikipedia Mobile

Weather (top)

Current conditions for Lungi International Airport 94nm (175km) WNW (rec'd 2014/11/22 11:00Z):

GFLL 221100Z 12010KT 9999 NSW SCT015 FEW027CB 29/25 Q1012 RMK CB-NE

Airport forecast for Lungi International Airport 94nm (175km) WNW (rec'd 2014/11/22 12:54Z):

TAF TAF GFLL 221000Z 2212/2318 16008KT 9999 SCT014 FEW027CB PROB30 
      TEMPO 2216/2221 28007KT 9999 TS BKN012 FEW027CB 
      BECMG 2300/2303 07012KT 9000 
      TEMPO 2304/2304/2308 03004KT 4000 BR BKN010 FEW027CB

Latest comments (top)

No comments yet for Bo Airport

More... (top)

See also NOTAMs and nearby airports and navaids, or visit the Bo Airport page at the main OurAirports website..